Time;durP1;ratioP1;P1;durP2;ratioP2;P2;SDS_P1;SDS_P2;PMS_P1;PMS_P2;Temp;Humidity;BMP_temperature;BMP_pressure;BME280_temperature;BME280_humidity;BME280_pressure;Samples;Min_cycle;Max_cycle;Signal;HPM_P1;HPM_P2
2023/01/21 00:00:33;;;;;;;;;5.50;5.50;;;;;7.46;66.43;101685.28;5054427;28;45826;-79
2023/01/21 00:02:59;;;;;;;;;7.25;6.00;;;;;7.52;66.58;101699.44;5050088;28;46028;-79
2023/01/21 00:05:24;;;;;;;;;7.25;5.75;;;;;7.54;66.20;101692.31;5040772;28;45292;-79
2023/01/21 00:07:49;;;;;;;;;6.00;4.25;;;;;7.40;66.22;101671.16;5040576;28;45508;-79
2023/01/21 00:10:15;;;;;;;;;7.25;5.00;;;;;7.53;66.34;101697.66;5045801;28;45299;-79
2023/01/21 00:12:40;;;;;;;;;8.25;7.00;;;;;7.51;66.38;101699.44;5047259;28;48546;-79
2023/01/21 00:15:06;;;;;;;;;6.25;6.25;;;;;7.46;67.08;101690.59;5052382;28;45346;-79
2023/01/21 00:17:34;;;;;;;;;6.25;6.25;;;;;7.44;67.22;101693.25;5045445;28;45323;-79
2023/01/21 00:20:04;;;;;;;;;10.25;6.00;;;;;7.47;66.90;101711.84;5051719;28;45453;-79
2023/01/21 00:22:29;;;;;;;;;6.00;6.00;;;;;7.48;67.35;101710.06;5056540;28;47312;-79
2023/01/21 00:24:55;;;;;;;;;7.50;6.00;;;;;7.46;67.21;101703.88;5056144;28;45179;-79
2023/01/21 00:27:20;;;;;;;;;9.75;7.75;;;;;7.41;66.81;101696.81;5058564;28;45362;-79
2023/01/21 00:29:45;;;;;;;;;6.00;6.00;;;;;7.47;67.37;101698.56;5042886;28;45930;-79
2023/01/21 00:32:11;;;;;;;;;6.75;6.75;;;;;7.53;67.54;101706.50;5043548;28;45620;-79
2023/01/21 00:34:36;;;;;;;;;8.50;7.00;;;;;7.49;67.16;101704.75;5041911;28;45677;-79
2023/01/21 00:37:02;;;;;;;;;8.25;8.00;;;;;7.45;67.17;101697.69;5057500;28;45404;-79
2023/01/21 00:39:27;;;;;;;;;9.25;7.00;;;;;7.50;67.37;101706.53;5045040;28;45493;-79
2023/01/21 00:41:52;;;;;;;;;7.00;7.00;;;;;7.51;67.13;101704.75;5053949;28;47505;-79
2023/01/21 00:44:18;;;;;;;;;8.25;8.00;;;;;7.56;67.03;101714.44;5057801;28;45307;-79
2023/01/21 00:46:44;;;;;;;;;12.00;8.00;;;;;7.55;67.87;101727.75;5055876;28;45423;-79
2023/01/21 00:49:09;;;;;;;;;8.50;6.50;;;;;7.53;67.47;101733.06;5057692;28;45375;-79
2023/01/21 00:51:34;;;;;;;;;5.25;4.75;;;;;7.52;67.34;101735.75;5056727;28;47968;-81
2023/01/21 00:54:00;;;;;;;;;7.75;5.00;;;;;7.51;67.32;101734.84;5038316;28;45392;-81
2023/01/21 00:56:25;;;;;;;;;8.50;5.50;;;;;7.42;67.10;101721.63;5054242;28;45298;-81
2023/01/21 00:58:50;;;;;;;;;7.75;6.75;;;;;7.44;67.04;101734.91;5044621;28;45384;-81
2023/01/21 01:01:18;;;;;;;;;8.50;7.25;;;;;7.48;67.18;101748.13;5043710;28;45556;-81
2023/01/21 01:03:45;;;;;;;;;6.00;4.00;;;;;7.34;67.38;101729.59;5041963;28;45193;-81
2023/01/21 01:06:14;;;;;;;;;8.50;7.00;;;;;7.39;67.72;101753.50;5042049;28;45294;-81
2023/01/21 01:08:40;;;;;;;;;6.25;3.50;;;;;7.37;67.26;101747.31;5045602;28;45835;-81
2023/01/21 01:11:05;;;;;;;;;5.50;4.00;;;;;7.31;67.48;101744.66;5043013;28;45755;-80
2023/01/21 01:13:33;;;;;;;;;6.75;6.00;;;;;7.35;67.48;101765.00;5045384;28;45453;-81
2023/01/21 01:15:59;;;;;;;;;5.00;4.75;;;;;7.25;67.21;101748.22;5045294;28;45283;-81
2023/01/21 01:18:25;;;;;;;;;7.00;6.00;;;;;7.18;67.86;101744.72;5054396;28;45494;-81
2023/01/21 01:20:51;;;;;;;;;5.25;5.25;;;;;7.24;67.87;101755.28;5059606;28;46314;-81
2023/01/21 01:23:16;;;;;;;;;11.25;8.25;;;;;7.19;67.38;101749.13;5050079;28;45928;-81
2023/01/21 01:25:42;;;;;;;;;6.50;4.75;;;;;7.32;67.82;101773.88;5054817;28;45409;-81
2023/01/21 01:28:08;;;;;;;;;8.00;7.25;;;;;7.33;67.67;101772.97;5047359;28;45616;-81
2023/01/21 01:30:34;;;;;;;;;6.25;6.25;;;;;7.28;67.62;101761.47;5061202;28;46063;-81
2023/01/21 01:33:00;;;;;;;;;8.75;6.50;;;;;7.29;67.65;101773.00;5047478;28;45598;-81
2023/01/21 01:35:25;;;;;;;;;7.50;6.00;;;;;7.21;67.76;101770.34;5055707;28;45521;-81
2023/01/21 01:37:50;;;;;;;;;6.00;5.25;;;;;7.16;66.63;101766.81;5053923;28;45438;-81
2023/01/21 01:40:16;;;;;;;;;10.50;6.75;;;;;7.15;67.42;101773.00;5054881;28;46079;-81
2023/01/21 01:42:41;;;;;;;;;7.00;7.00;;;;;7.10;67.89;101778.34;5041407;28;45445;-81
2023/01/21 01:45:13;;;;;;;;;8.75;8.50;;;;;7.15;67.48;101786.28;5040881;28;45321;-81
2023/01/21 01:47:44;;;;;;;;;9.50;8.00;;;;;7.04;67.85;101779.22;5056358;28;45235;-81
2023/01/21 01:50:15;;;;;;;;;11.00;10.00;;;;;6.95;67.21;101768.63;5059862;28;47504;-81
2023/01/21 01:52:42;;;;;;;;;7.00;7.00;;;;;7.06;67.63;101792.50;5058808;28;45323;-81
2023/01/21 01:55:10;;;;;;;;;13.50;10.75;;;;;6.93;67.23;101772.16;5057634;28;45332;-81
2023/01/21 01:57:40;;;;;;;;;17.25;15.50;;;;;7.11;67.46;101801.34;5040737;28;45272;-81
2023/01/21 02:00:08;;;;;;;;;12.75;11.25;;;;;7.13;66.71;101811.97;5044813;28;47310;-81
2023/01/21 02:02:34;;;;;;;;;10.25;9.75;;;;;6.98;66.97;101791.63;5040997;28;45349;-81
2023/01/21 02:05:04;;;;;;;;;8.25;8.25;;;;;7.07;66.76;101817.28;5053136;28;45296;-81
2023/01/21 02:07:38;;;;;;;;;12.75;11.00;;;;;6.99;66.88;101812.00;5044495;28;45373;-81
2023/01/21 02:10:06;;;;;;;;;9.25;9.25;;;;;7.04;66.17;101819.06;5052747;28;46569;-81
2023/01/21 02:12:32;;;;;;;;;10.00;10.00;;;;;7.04;66.16;101820.84;5058531;28;45567;-81
2023/01/21 02:14:58;;;;;;;;;6.25;5.00;;;;;7.05;65.52;101828.81;5058094;28;45304;-81
2023/01/21 02:17:42;;;;;;;;;9.75;7.75;;;;;7.04;64.68;101834.09;5061231;28;45437;-81
2023/01/21 02:20:30;;;;;;;;;10.00;9.00;;;;;7.03;64.80;101841.19;5040625;28;47088;-81
2023/01/21 02:23:31;;;;;;;;;11.75;11.25;;;;;7.01;65.46;101831.44;5018317;28;46024;-81
2023/01/21 02:26:15;;;;;;;;;15.50;10.75;;;;;7.12;65.27;101850.06;5055635;28;45433;-81
2023/01/21 02:29:01;;;;;;;;;12.50;10.75;;;;;7.14;65.33;101856.25;5043776;28;45561;-81
2023/01/21 02:32:07;;;;;;;;;12.50;12.00;;;;;7.14;65.25;101851.81;5046566;28;45397;-81
2023/01/21 02:34:47;;;;;;;;;14.25;13.75;;;;;7.14;64.95;101869.50;5046182;28;45285;-81
2023/01/21 02:37:23;;;;;;;;;15.00;11.50;;;;;7.12;65.07;101871.28;5054383;28;45500;-80
2023/01/21 02:40:07;;;;;;;;;12.00;10.75;;;;;7.12;64.80;101888.09;5049431;28;45516;-80
2023/01/21 02:42:35;;;;;;;;;11.00;10.75;;;;;7.09;64.76;101893.41;5049036;28;48710;-81
2023/01/21 02:45:38;;;;;;;;;15.75;12.50;;;;;7.08;64.19;101904.03;5051931;28;45819;-81
2023/01/21 02:48:13;;;;;;;;;10.50;9.50;;;;;7.00;64.01;101910.22;5052017;28;45319;-81
2023/01/21 02:50:44;;;;;;;;;10.25;8.50;;;;;6.95;63.86;101911.97;5057189;28;45482;-81
2023/01/21 02:53:24;;;;;;;;;8.00;8.00;;;;;6.89;63.92;101909.31;5046437;28;45282;-81
2023/01/21 02:55:50;;;;;;;;;6.25;6.25;;;;;6.78;64.07;101898.69;5050014;28;45329;-81
2023/01/21 02:58:18;;;;;;;;;10.25;8.00;;;;;6.79;64.11;101918.16;5042580;28;45380;-80
2023/01/21 03:01:02;;;;;;;;;11.50;10.00;;;;;6.86;64.27;101923.44;5050044;28;45314;-80
2023/01/21 03:03:27;;;;;;;;;9.50;9.00;;;;;6.85;62.88;101940.28;5039702;28;45249;-80
2023/01/21 03:06:18;;;;;;;;;10.75;8.00;;;;;6.79;63.17;101953.53;5043003;28;45264;-80
2023/01/21 03:08:51;;;;;;;;;15.00;12.75;;;;;6.72;63.62;101954.41;5047862;28;45444;-81
2023/01/21 03:11:21;;;;;;;;;11.50;11.00;;;;;6.61;62.86;101953.47;5055219;28;45561;-81
2023/01/21 03:16:56;;;;;;;;;10.75;10.25;;;;;6.50;63.32;101950.78;5058900;28;45781;-80
2023/01/21 03:19:31;;;;;;;;;11.25;9.50;;;;;6.57;63.48;101970.28;5047990;27;45270;-80
2023/01/21 03:22:00;;;;;;;;;15.00;12.75;;;;;6.57;62.59;101968.50;5042593;28;45445;-80
2023/01/21 03:24:26;;;;;;;;;13.25;12.00;;;;;6.50;62.04;101977.31;5051559;28;46209;-80
2023/01/21 03:26:56;;;;;;;;;13.75;12.50;;;;;6.41;62.12;101977.25;5039405;28;45389;-80
2023/01/21 03:29:25;;;;;;;;;16.00;12.25;;;;;6.33;61.87;101974.56;5051524;28;45322;-80
2023/01/21 03:31:55;;;;;;;;;14.75;11.00;;;;;6.28;62.46;101978.97;5045887;28;45518;-80
2023/01/21 03:34:25;;;;;;;;;12.00;8.00;;;;;6.11;62.30;101955.00;5056258;28;46243;-80
2023/01/21 03:36:56;;;;;;;;;14.25;11.75;;;;;6.29;61.90;102002.84;5059430;28;45244;-80
2023/01/21 03:39:33;;;;;;;;;11.00;11.00;;;;;6.14;61.34;101984.19;5052848;28;45288;-80
2023/01/21 03:41:59;;;;;;;;;16.25;15.00;;;;;6.09;61.42;101996.53;5047659;28;45572;-80
2023/01/21 03:44:25;;;;;;;;;14.50;13.75;;;;;6.02;61.26;101992.97;5041089;28;46425;-80
2023/01/21 03:47:16;;;;;;;;;15.75;11.50;;;;;6.10;61.59;102014.22;5053267;28;45433;-80
2023/01/21 03:49:51;;;;;;;;;12.75;10.25;;;;;6.04;61.84;102007.09;5049025;28;45197;-80
2023/01/21 03:52:20;;;;;;;;;18.25;16.25;;;;;6.05;61.28;102016.84;5052011;28;45333;-80
2023/01/21 03:54:47;;;;;;;;;16.75;15.00;;;;;5.93;61.14;102001.72;5040352;28;46192;-80
2023/01/21 03:57:12;;;;;;;;;15.00;14.75;;;;;5.93;61.56;102003.44;5039008;28;45390;-80
2023/01/21 03:59:37;;;;;;;;;21.25;17.00;;;;;6.02;61.03;102013.28;5053459;28;45244;-80
2023/01/21 04:02:03;;;;;;;;;18.50;14.75;;;;;5.99;61.42;102008.84;5056129;28;45885;-80
2023/01/21 04:04:28;;;;;;;;;16.50;15.00;;;;;5.99;60.90;102011.50;5052182;28;46003;-80
2023/01/21 04:06:53;;;;;;;;;18.75;16.75;;;;;5.89;60.75;101999.91;5038548;28;45296;-80
2023/01/21 04:09:19;;;;;;;;;22.00;16.25;;;;;5.96;61.40;102014.09;5039012;28;45326;-80
2023/01/21 04:11:44;;;;;;;;;17.50;17.25;;;;;5.88;60.50;102016.69;5046687;28;45842;-80
2023/01/21 04:14:09;;;;;;;;;20.00;16.00;;;;;5.71;60.27;102031.56;5045634;28;47535;-80
2023/01/21 04:16:35;;;;;;;;;22.00;19.25;;;;;5.52;60.83;102019.94;5040615;28;45254;-80
2023/01/21 04:19:00;;;;;;;;;20.25;17.50;;;;;5.56;60.97;102032.31;5056032;28;45517;-80
2023/01/21 04:21:25;;;;;;;;;22.25;20.00;;;;;5.44;60.27;102048.09;5055695;28;45888;-80
2023/01/21 04:23:51;;;;;;;;;21.50;15.25;;;;;5.40;59.95;102065.72;5057591;28;47266;-80
2023/01/21 04:26:16;;;;;;;;;23.75;18.25;;;;;5.23;60.42;102036.44;5047798;28;45239;-80
2023/01/21 04:28:42;;;;;;;;;16.00;13.75;;;;;5.26;61.14;102060.28;5038159;28;45281;-80
2023/01/21 04:31:07;;;;;;;;;20.00;15.25;;;;;5.10;61.08;102034.53;5069825;28;45868;-80
2023/01/21 04:33:32;;;;;;;;;21.50;17.75;;;;;5.17;61.24;102061.06;5049203;28;47637;-80
2023/01/21 04:35:59;;;;;;;;;21.25;17.25;;;;;5.10;61.58;102047.75;5052771;28;45408;-80
2023/01/21 04:38:25;;;;;;;;;21.25;17.25;;;;;5.02;61.48;102023.84;5049989;28;45392;-80
2023/01/21 04:40:51;;;;;;;;;19.00;15.50;;;;;5.16;61.82;102047.78;5047586;28;45446;-80
2023/01/21 04:43:16;;;;;;;;;23.25;21.75;;;;;5.25;61.26;102055.84;5062106;28;46219;-80
2023/01/21 04:45:42;;;;;;;;;18.50;17.75;;;;;5.22;61.20;102052.28;5049261;28;45735;-80
2023/01/21 04:48:07;;;;;;;;;18.75;18.00;;;;;5.23;61.30;102048.75;5062237;28;45408;-80
2023/01/21 04:50:32;;;;;;;;;26.75;18.75;;;;;5.12;60.60;102043.34;5055144;28;45269;-80
2023/01/21 04:52:58;;;;;;;;;24.00;18.00;;;;;5.18;61.29;102062.84;5053100;28;45441;-80
2023/01/21 04:55:23;;;;;;;;;23.50;19.25;;;;;5.17;61.19;102055.75;5056134;28;45258;-80
2023/01/21 04:57:48;;;;;;;;;22.50;20.25;;;;;5.17;61.17;102057.53;5043882;28;45345;-80
2023/01/21 05:00:14;;;;;;;;;17.75;17.00;;;;;5.23;61.64;102052.31;5042522;28;45183;-80
2023/01/21 05:02:40;;;;;;;;;23.75;21.25;;;;;5.19;61.04;102047.84;5056170;28;47221;-80
2023/01/21 05:05:05;;;;;;;;;19.00;16.50;;;;;5.16;61.32;102059.28;5041654;28;45291;-80
2023/01/21 05:07:31;;;;;;;;;26.75;21.25;;;;;5.19;61.54;102069.00;5052154;28;45309;-80
2023/01/21 05:09:56;;;;;;;;;19.25;17.25;;;;;5.16;61.44;102059.28;5048535;28;45277;-80
2023/01/21 05:12:21;;;;;;;;;22.25;18.00;;;;;5.15;61.06;102060.16;5048080;28;45343;-80
2023/01/21 05:14:47;;;;;;;;;25.00;18.25;;;;;5.15;61.47;102078.69;5048392;28;45263;-80
2023/01/21 05:17:12;;;;;;;;;22.75;20.75;;;;;5.08;61.25;102060.97;5060566;28;45307;-80
2023/01/21 05:19:37;;;;;;;;;21.00;17.75;;;;;5.13;61.17;102064.56;5052783;27;45643;-81
2023/01/21 05:22:03;;;;;;;;;24.75;20.75;;;;;5.16;61.34;102074.25;5059461;28;47135;-80
2023/01/21 05:24:29;;;;;;;;;23.50;21.25;;;;;5.22;61.38;102084.06;5045983;28;45297;-80
2023/01/21 05:26:55;;;;;;;;;20.00;19.50;;;;;5.20;61.02;102082.25;5060607;28;45326;-80
2023/01/21 05:29:20;;;;;;;;;19.75;19.00;;;;;5.09;60.91;102083.00;5042722;28;45492;-80
2023/01/21 05:31:45;;;;;;;;;22.00;18.25;;;;;5.05;61.30;102081.22;5052425;28;48091;-80
2023/01/21 05:34:11;;;;;;;;;20.25;20.25;;;;;5.10;61.14;102100.69;5054693;28;45371;-80
2023/01/21 05:36:37;;;;;;;;;19.25;16.25;;;;;4.88;61.21;102060.72;5057424;28;45411;-80
2023/01/21 05:39:03;;;;;;;;;23.25;20.50;;;;;5.03;61.22;102091.78;5058740;28;45510;-80
2023/01/21 05:41:28;;;;;;;;;21.75;21.75;;;;;5.03;60.86;102093.53;5059943;28;45443;-80
2023/01/21 05:43:53;;;;;;;;;25.25;18.75;;;;;4.99;60.63;102105.84;5045745;28;45330;-80
2023/01/21 05:46:19;;;;;;;;;24.25;20.50;;;;;4.90;60.82;102095.16;5041582;28;45462;-80
2023/01/21 05:48:44;;;;;;;;;21.75;17.50;;;;;4.84;60.80;102106.53;5057162;28;45403;-80
2023/01/21 05:51:09;;;;;;;;;25.75;20.25;;;;;4.85;60.98;102105.66;5060084;28;45848;-80
2023/01/21 05:53:35;;;;;;;;;21.25;18.75;;;;;4.74;60.17;102086.97;5055998;28;45315;-80
2023/01/21 05:56:00;;;;;;;;;23.50;17.50;;;;;4.92;61.08;102122.50;5040645;28;45343;-80
2023/01/21 05:58:26;;;;;;;;;17.75;16.75;;;;;4.94;60.67;102123.41;5043205;28;45243;-80
2023/01/21 06:00:52;;;;;;;;;25.00;20.00;;;;;4.86;61.22;102118.03;5050385;28;47067;-80
2023/01/21 06:03:18;;;;;;;;;21.25;15.00;;;;;4.74;60.77;102099.34;5056814;28;45877;-80
2023/01/21 06:05:44;;;;;;;;;31.50;21.75;;;;;4.83;61.36;102118.00;5048790;28;45401;-80
2023/01/21 06:08:10;;;;;;;;;23.50;21.75;;;;;4.80;60.41;102128.53;5051198;28;45341;-80
2023/01/21 06:10:36;;;;;;;;;27.00;22.00;;;;;4.79;60.88;102137.31;5047278;28;47100;-80
2023/01/21 06:13:02;;;;;;;;;29.50;20.25;;;;;4.72;61.67;102127.53;5040278;28;45305;-80
2023/01/21 06:15:27;;;;;;;;;30.75;27.50;;;;;4.59;62.09;102126.47;5059594;28;45374;-80
2023/01/21 06:17:53;;;;;;;;;20.75;19.00;;;;;4.67;61.95;102138.03;5047604;28;45519;-80
2023/01/21 06:20:18;;;;;;;;;26.75;17.00;;;;;4.59;61.60;102122.06;5045376;28;45439;-80
2023/01/21 06:22:44;;;;;;;;;27.25;24.25;;;;;4.67;62.28;102140.69;5054862;28;45435;-80
2023/01/21 06:25:10;;;;;;;;;25.00;20.00;;;;;4.60;62.05;102131.78;5057711;28;45217;-80
2023/01/21 06:27:37;;;;;;;;;23.25;19.25;;;;;4.66;61.99;102141.56;5052712;28;45255;-80
2023/01/21 06:30:05;;;;;;;;;24.25;22.50;;;;;4.72;61.84;102149.56;5043182;28;46353;-80
2023/01/21 06:32:30;;;;;;;;;27.25;24.50;;;;;4.67;62.00;102151.25;5044134;28;45710;-80
2023/01/21 06:34:56;;;;;;;;;26.00;22.50;;;;;4.69;62.04;102148.66;5044602;28;45859;-80
2023/01/21 06:37:21;;;;;;;;;25.00;22.75;;;;;4.63;62.04;102147.69;5045539;28;45454;-80
2023/01/21 06:39:46;;;;;;;;;29.75;24.75;;;;;4.66;62.40;102164.47;5051372;28;45542;-80
2023/01/21 06:42:12;;;;;;;;;27.00;25.75;;;;;4.64;62.25;102165.34;5040046;28;45303;-80
2023/01/21 06:44:37;;;;;;;;;25.75;23.25;;;;;4.55;61.96;102159.03;5040498;28;45555;-80
2023/01/21 06:47:02;;;;;;;;;24.00;20.25;;;;;4.55;62.54;102159.91;5048936;28;45345;-80
2023/01/21 06:49:28;;;;;;;;;24.75;20.75;;;;;4.56;61.95;102166.06;5038932;28;47010;-80
2023/01/21 06:51:53;;;;;;;;;22.00;20.25;;;;;4.60;62.69;102173.22;5052808;28;45348;-80
2023/01/21 06:54:18;;;;;;;;;29.00;25.00;;;;;4.55;62.14;102161.69;5039707;28;45245;-80
2023/01/21 06:56:44;;;;;;;;;27.00;23.75;;;;;4.63;62.37;102182.06;5040031;28;45703;-80
2023/01/21 06:59:09;;;;;;;;;25.00;23.50;;;;;4.53;61.92;102172.22;5044179;28;45273;-80
2023/01/21 07:01:35;;;;;;;;;35.25;32.25;;;;;4.43;62.39;102165.03;5050893;28;45313;-80
2023/01/21 07:04:01;;;;;;;;;31.75;29.00;;;;;4.56;62.48;102196.09;5054688;28;45450;-80
2023/01/21 07:06:26;;;;;;;;;26.00;18.50;;;;;4.50;62.33;102185.41;5042436;28;45511;-80
2023/01/21 07:08:52;;;;;;;;;29.25;25.00;;;;;4.50;62.60;102192.44;5054733;28;45317;-80
2023/01/21 07:11:17;;;;;;;;;38.00;30.75;;;;;4.52;62.93;102204.81;5059720;28;45354;-80
2023/01/21 07:13:42;;;;;;;;;27.75;27.75;;;;;4.54;62.68;102213.66;5051635;28;45593;-78
2023/01/21 07:16:08;;;;;;;;;28.25;27.00;;;;;4.35;62.96;102193.09;5048622;28;45637;-80
2023/01/21 07:18:33;;;;;;;;;27.75;24.00;;;;;4.56;62.72;102226.91;5040008;28;47922;-80
2023/01/21 07:20:59;;;;;;;;;28.75;24.00;;;;;4.55;62.56;102223.38;5039522;28;45480;-80
2023/01/21 07:23:24;;;;;;;;;31.00;26.00;;;;;4.62;63.32;102234.94;5050499;28;45404;-79
2023/01/21 07:25:50;;;;;;;;;25.50;20.75;;;;;4.57;62.53;102229.56;5043916;28;45865;-79
2023/01/21 07:28:15;;;;;;;;;32.25;31.50;;;;;4.57;62.60;102236.63;5057278;28;45388;-79
2023/01/21 07:30:40;;;;;;;;;27.00;24.25;;;;;4.61;62.37;102246.38;5046335;28;45414;-79
2023/01/21 07:33:08;;;;;;;;;36.50;30.75;;;;;4.63;62.52;102252.59;5046184;28;45433;-79
2023/01/21 07:35:34;;;;;;;;;27.25;21.25;;;;;4.44;62.34;102238.16;5059773;28;45420;-79
2023/01/21 07:38:00;;;;;;;;;36.50;33.00;;;;;4.41;63.02;102249.59;5052048;28;45602;-79
2023/01/21 07:40:25;;;;;;;;;30.25;26.00;;;;;4.52;63.49;102252.41;5045059;28;45435;-79
2023/01/21 07:42:53;;;;;;;;;38.75;30.25;;;;;4.49;62.90;102252.34;5046270;28;47568;-79
2023/01/21 07:45:20;;;;;;;;;40.00;32.00;;;;;4.64;62.79;102270.25;5069951;28;45428;-79
2023/01/21 07:47:45;;;;;;;;;21.00;19.50;;;;;4.56;62.72;102253.34;5050712;28;46587;-79
2023/01/21 07:50:10;;;;;;;;;36.00;29.25;;;;;4.67;62.57;102272.06;5050498;28;45634;-79
2023/01/21 07:52:36;;;;;;;;;41.75;34.25;;;;;4.56;63.17;102258.63;5049958;28;45507;-79
2023/01/21 07:55:01;;;;;;;;;39.00;32.00;;;;;4.64;62.44;102275.53;5039073;28;45401;-78
2023/01/21 07:57:27;;;;;;;;;37.75;30.25;;;;;4.66;62.62;102286.13;5045902;28;45455;-78
2023/01/21 07:59:53;;;;;;;;;34.75;30.25;;;;;4.63;62.73;102284.34;5042139;28;45272;-79
2023/01/21 08:02:18;;;;;;;;;34.25;26.25;;;;;4.64;62.86;102284.38;5051351;28;45234;-79
2023/01/21 08:04:43;;;;;;;;;36.50;33.75;;;;;4.74;63.32;102295.09;5056318;28;45302;-79
2023/01/21 08:07:09;;;;;;;;;35.00;28.75;;;;;4.55;62.74;102264.81;5038447;28;46188;-79
2023/01/21 08:09:37;;;;;;;;;38.75;31.25;;;;;4.64;62.67;102291.41;5038862;28;45264;-80
2023/01/21 08:12:05;;;;;;;;;33.50;29.00;;;;;4.70;62.71;102312.69;5042919;28;45516;-80
2023/01/21 08:14:30;;;;;;;;;35.00;29.00;;;;;4.70;62.88;102319.72;5054677;28;45351;-78
2023/01/21 08:16:56;;;;;;;;;43.25;36.50;;;;;4.61;62.42;102307.22;5053024;28;47352;-78
2023/01/21 08:19:21;;;;;;;;;37.00;31.25;;;;;4.63;62.85;102311.69;5052819;27;45591;-79
2023/01/21 08:21:47;;;;;;;;;40.50;33.00;;;;;4.61;62.33;102318.72;5041764;28;45351;-79
2023/01/21 08:24:12;;;;;;;;;36.75;32.50;;;;;4.60;63.16;102319.56;5047675;28;45386;-80
2023/01/21 08:26:38;;;;;;;;;43.75;37.75;;;;;4.50;62.71;102312.31;5044724;28;45483;-78
2023/01/21 08:29:03;;;;;;;;;37.00;33.75;;;;;4.48;63.19;102321.09;5050328;28;45255;-78
2023/01/21 08:31:28;;;;;;;;;37.25;33.25;;;;;4.47;63.08;102327.25;5051408;28;45371;-85
2023/01/21 08:33:54;;;;;;;;;41.00;37.75;;;;;4.39;63.09;102322.72;5055309;28;45335;-85
2023/01/21 08:36:20;;;;;;;;;30.00;27.00;;;;;4.36;63.28;102327.94;5047097;28;45496;-85
2023/01/21 08:38:45;;;;;;;;;32.75;30.00;;;;;4.40;63.34;102340.34;5056636;28;45354;-85
2023/01/21 08:41:10;;;;;;;;;35.75;33.50;;;;;4.25;62.99;102316.28;5059202;28;45283;-84
2023/01/21 08:43:36;;;;;;;;;45.00;35.25;;;;;4.40;63.05;102344.75;5051500;28;45382;-85
2023/01/21 08:46:01;;;;;;;;;45.00;40.25;;;;;4.23;62.85;102320.66;5053780;28;48349;-78
2023/01/21 08:48:28;;;;;;;;;41.00;35.00;;;;;4.22;63.40;102317.09;5040079;28;46244;-78
2023/01/21 08:50:57;;;;;;;;;49.00;42.50;;;;;4.37;62.78;102340.28;5037989;28;45476;-78
2023/01/21 08:53:23;;;;;;;;;38.75;29.25;;;;;4.25;63.63;102317.16;5046021;28;45383;-79
2023/01/21 08:55:48;;;;;;;;;43.50;37.75;;;;;4.55;63.36;102350.31;5054575;28;47194;-78
2023/01/21 08:58:13;;;;;;;;;40.50;33.25;;;;;4.40;63.39;102324.50;5057630;28;45372;-78
2023/01/21 09:00:40;;;;;;;;;43.50;37.25;;;;;4.52;63.32;102338.81;5056460;28;45613;-80
2023/01/21 09:03:06;;;;;;;;;40.50;37.00;;;;;4.51;63.85;102342.28;5049283;28;45299;-78
2023/01/21 09:05:31;;;;;;;;;42.25;34.00;;;;;4.40;62.86;102320.97;5047178;28;45658;-78
2023/01/21 09:07:56;;;;;;;;;43.25;35.75;;;;;4.53;62.92;102356.47;5044532;28;46552;-78
2023/01/21 09:13:08;;;;;;;;;43.00;39.25;;;;;4.53;62.76;102369.69;5057606;28;45348;-78
2023/01/21 09:15:41;;;;;;;;;36.50;30.50;;;;;4.44;62.34;102359.81;5055125;28;47459;-78
2023/01/21 09:18:06;;;;;;;;;36.00;30.75;;;;;4.47;62.67;102366.91;5044954;28;45370;-79
2023/01/21 09:20:32;;;;;;;;;48.25;39.25;;;;;4.49;62.26;102368.72;5041809;28;46015;-78
2023/01/21 09:22:58;;;;;;;;;42.00;36.25;;;;;4.41;63.04;102351.81;5047026;28;45493;-82
2023/01/21 09:25:23;;;;;;;;;32.75;31.25;;;;;4.52;62.73;102378.47;5048599;28;45373;-82
2023/01/21 09:27:48;;;;;;;;;44.75;35.50;;;;;4.44;62.78;102373.03;5041037;28;45324;-82
2023/01/21 09:30:14;;;;;;;;;42.50;34.25;;;;;4.39;62.57;102379.97;5054098;28;45621;-82
2023/01/21 09:32:39;;;;;;;;;41.00;33.50;;;;;4.30;63.13;102374.53;5040834;28;45537;-82
2023/01/21 09:35:05;;;;;;;;;44.00;39.25;;;;;4.29;62.85;102375.38;5053914;28;46647;-82
2023/01/21 09:37:33;;;;;;;;;45.00;41.25;;;;;4.35;62.67;102383.44;5060846;28;45320;-82
2023/01/21 09:39:59;;;;;;;;;41.50;35.25;;;;;4.25;62.96;102375.31;5061495;28;45211;-82
2023/01/21 09:42:29;;;;;;;;;48.75;37.50;;;;;4.25;62.89;102385.88;5041621;28;45289;-82
2023/01/21 09:44:57;;;;;;;;;48.25;38.50;;;;;4.32;63.26;102393.94;5040780;28;45543;-82
2023/01/21 09:47:35;;;;;;;;;44.25;40.25;;;;;4.42;63.41;102404.72;5044352;28;45687;-82
2023/01/21 09:50:13;;;;;;;;;44.25;38.25;;;;;4.39;62.56;102399.41;5055470;28;45278;-82
2023/01/21 09:52:43;;;;;;;;;50.00;42.50;;;;;4.47;63.47;102410.13;5050869;28;45475;-82
2023/01/21 09:55:16;;;;;;;;;49.00;41.25;;;;;4.56;62.77;102425.25;5040800;28;45389;-82
2023/01/21 09:57:53;;;;;;;;;49.00;38.75;;;;;4.61;62.90;102436.81;5040825;28;45452;-82
2023/01/21 10:00:32;;;;;;;;;48.25;38.00;;;;;4.51;62.70;102413.69;5041195;28;45280;-82
2023/01/21 10:03:20;;;;;;;;;48.25;40.25;;;;;4.66;62.74;102439.56;5040876;28;45347;-82
2023/01/21 10:06:14;;;;;;;;;48.00;40.75;;;;;4.64;62.70;102443.09;5051712;28;47598;-82
2023/01/21 10:08:52;;;;;;;;;41.50;37.50;;;;;4.67;62.40;102449.28;5042168;28;45331;-81
2023/01/21 10:11:36;;;;;;;;;39.50;33.50;;;;;4.68;62.26;102444.03;5052626;28;45436;-80
2023/01/21 10:14:22;;;;;;;;;43.75;39.75;;;;;4.71;62.64;102452.03;5051051;28;45751;-80
2023/01/21 10:17:20;;;;;;;;;58.00;42.25;;;;;4.67;62.92;102455.47;5062017;28;46614;-80
2023/01/21 10:20:01;;;;;;;;;40.50;38.00;;;;;4.74;62.42;102475.88;5041997;28;45413;-80
2023/01/21 10:22:27;;;;;;;;;40.75;38.50;;;;;4.68;62.55;102473.13;5041811;28;45677;-80
2023/01/21 10:25:14;;;;;;;;;44.25;39.50;;;;;4.68;62.96;102467.84;5042829;28;45361;-80
2023/01/21 10:27:42;;;;;;;;;46.25;35.00;;;;;4.67;61.72;102467.81;5038228;28;47101;-80
2023/01/21 10:30:19;;;;;;;;;48.00;40.50;;;;;4.63;62.27;102451.88;5052212;28;45250;-80
2023/01/21 10:32:49;;;;;;;;;38.00;37.00;;;;;4.51;61.91;102435.78;5040535;28;45313;-80
2023/01/21 10:35:21;;;;;;;;;40.25;32.00;;;;;4.57;62.67;102464.09;5063266;28;46172;-80
2023/01/21 10:37:56;;;;;;;;;43.75;40.00;;;;;4.61;61.36;102476.50;5055353;28;45479;-83
2023/01/21 10:40:41;;;;;;;;;37.00;31.00;;;;;4.62;62.23;102467.72;5041991;28;45299;-82
2023/01/21 10:43:34;;;;;;;;;44.00;38.50;;;;;4.71;62.71;102467.91;5046390;28;45322;-83
2023/01/21 10:46:26;;;;;;;;;50.00;34.00;;;;;4.74;62.28;102451.19;5041774;28;45561;-83
2023/01/21 10:49:00;;;;;;;;;44.50;34.00;;;;;4.78;61.68;102443.34;5046394;28;47458;-82
2023/01/21 10:51:32;;;;;;;;;38.50;32.25;;;;;4.83;61.87;102451.38;5046905;28;45191;-82
2023/01/21 10:54:15;;;;;;;;;37.50;31.25;;;;;4.81;61.94;102453.06;5050223;28;45397;-85
2023/01/21 10:57:13;;;;;;;;;37.00;30.75;;;;;4.94;62.05;102480.66;5052297;28;45865;-83
2023/01/21 10:59:39;;;;;;;;;38.50;29.50;;;;;4.90;61.61;102465.59;5045085;28;46206;-83
2023/01/21 11:02:07;;;;;;;;;27.00;19.50;;;;;5.02;61.88;102487.00;5040951;28;45421;-84
2023/01/21 11:04:35;;;;;;;;;40.00;31.75;;;;;5.03;61.23;102475.56;5048989;28;45518;-81
2023/01/21 11:07:03;;;;;;;;;38.25;32.75;;;;;5.01;61.73;102474.63;5051829;28;45992;-81
2023/01/21 11:09:34;;;;;;;;;45.00;36.00;;;;;5.00;61.79;102463.16;5042446;28;45645;-82
2023/01/21 11:12:01;;;;;;;;;44.25;33.50;;;;;5.03;61.10;102480.84;5051401;28;46032;-81
2023/01/21 11:14:27;;;;;;;;;41.00;34.25;;;;;4.97;61.48;102455.16;5052486;28;45358;-81
2023/01/21 11:16:52;;;;;;;;;31.75;28.75;;;;;4.99;61.45;102465.75;5062678;28;45482;-80
2023/01/21 11:19:25;;;;;;;;;33.75;25.25;;;;;5.12;60.99;102483.66;5046490;28;46189;-81
2023/01/21 11:22:03;;;;;;;;;37.25;29.50;;;;;5.14;61.33;102487.22;5055975;28;45719;-80
2023/01/21 11:24:31;;;;;;;;;33.75;28.50;;;;;5.06;61.22;102475.63;5057092;28;45381;-81
2023/01/21 11:27:00;;;;;;;;;35.25;33.75;;;;;5.06;61.44;102480.00;5045104;28;45552;-81
2023/01/21 11:29:37;;;;;;;;;38.75;33.00;;;;;4.99;61.57;102468.41;5057907;28;45552;-80
2023/01/21 11:32:14;;;;;;;;;43.75;36.00;;;;;4.98;61.71;102475.47;5056432;28;45378;-80